createdAt,value
2023-05-15T00:00:44.187Z,69.71
2023-05-15T00:03:12.217Z,69.47
2023-05-15T00:05:40.412Z,69.54
2023-05-15T00:08:08.256Z,69.64
2023-05-15T00:10:38.197Z,69.33
2023-05-15T00:13:06.043Z,70.01
2023-05-15T00:15:33.876Z,69.44
2023-05-15T00:18:01.690Z,69.96
2023-05-15T00:20:29.572Z,70.03
2023-05-15T00:22:58.251Z,70.21
2023-05-15T00:25:26.213Z,69.83
2023-05-15T00:27:55.444Z,70.06
2023-05-15T00:30:23.230Z,69.78
2023-05-15T00:32:51.317Z,70.68
2023-05-15T00:35:19.228Z,70.59
2023-05-15T00:37:47.065Z,70.55
2023-05-15T00:40:20.599Z,70.43
2023-05-15T00:42:48.452Z,69.81
2023-05-15T00:45:17.851Z,70.48
2023-05-15T00:47:45.835Z,70.55
2023-05-15T00:50:13.959Z,71.07
2023-05-15T00:52:41.626Z,70.94
2023-05-15T00:55:10.021Z,71.19
2023-05-15T00:57:38.757Z,71.82
2023-05-15T01:00:10.388Z,72.08
2023-05-15T01:02:39.942Z,71.98
2023-05-15T01:05:08.991Z,72.42
2023-05-15T01:07:41.305Z,72.29
2023-05-15T01:10:09.944Z,72.74
2023-05-15T01:12:38.868Z,72.77
2023-05-15T01:15:07.511Z,73.38
2023-05-15T01:17:35.212Z,73.19
2023-05-15T01:20:09.373Z,73.11
2023-05-15T01:22:48.497Z,73.11
2023-05-15T01:25:36.725Z,73.21
2023-05-15T01:28:07.679Z,73.12
2023-05-15T01:30:37.628Z,73.01
2023-05-15T01:33:10.048Z,73.27
2023-05-15T01:35:43.592Z,73.25
2023-05-15T01:38:17.560Z,73.34
2023-05-15T01:40:46.474Z,73.30
2023-05-15T01:43:20.407Z,73.18
2023-05-15T01:45:48.090Z,72.70
2023-05-15T01:48:16.451Z,72.95
2023-05-15T01:50:44.371Z,73.05
2023-05-15T01:53:12.932Z,73.24
2023-05-15T01:55:41.321Z,73.20
2023-05-15T01:58:09.853Z,73.31
2023-05-15T02:00:39.782Z,73.42
2023-05-15T02:03:08.149Z,73.41
2023-05-15T02:05:36.161Z,73.26
2023-05-15T02:08:05.037Z,73.76
2023-05-15T02:10:34.282Z,73.57
2023-05-15T02:13:02.637Z,73.71
2023-05-15T02:15:30.811Z,73.68
2023-05-15T02:18:00.052Z,73.49
2023-05-15T02:20:27.715Z,73.58
2023-05-15T02:22:55.488Z,74.11
2023-05-15T02:25:27.674Z,74.19
2023-05-15T02:27:58.458Z,74.52
2023-05-15T02:30:36.332Z,74.61
2023-05-15T02:33:14.895Z,75.01
2023-05-15T02:35:50.282Z,75.56
2023-05-15T02:38:21.271Z,75.67
2023-05-15T02:40:49.474Z,76.06
2023-05-15T02:43:19.285Z,76.46
2023-05-15T02:45:47.472Z,76.69
2023-05-15T02:48:17.037Z,76.45
2023-05-15T02:50:45.042Z,75.99
2023-05-15T02:53:14.491Z,76.14
2023-05-15T02:55:42.222Z,76.37
2023-05-15T02:58:10.216Z,76.00
2023-05-15T03:00:37.959Z,76.72
2023-05-15T03:03:05.780Z,76.98
2023-05-15T03:05:34.879Z,76.69
2023-05-15T03:08:02.581Z,76.48
2023-05-15T03:10:30.288Z,76.77
2023-05-15T03:12:59.201Z,77.01
2023-05-15T03:15:27.144Z,76.94
2023-05-15T03:17:54.966Z,77.53
2023-05-15T03:20:22.676Z,77.60
2023-05-15T03:22:51.734Z,77.46
2023-05-15T03:25:19.644Z,77.24
2023-05-15T03:27:47.277Z,77.03
2023-05-15T03:30:14.996Z,77.31
2023-05-15T03:32:42.738Z,77.41
2023-05-15T03:35:11.255Z,77.02
2023-05-15T03:37:39.010Z,77.50
2023-05-15T03:40:09.649Z,77.48
2023-05-15T03:42:37.492Z,77.68
2023-05-15T03:45:05.943Z,77.06
2023-05-15T03:47:33.857Z,77.70
2023-05-15T03:50:01.555Z,77.66
2023-05-15T03:52:29.220Z,77.92
2023-05-15T03:54:56.849Z,77.68
2023-05-15T03:57:26.033Z,77.67
2023-05-15T03:59:53.647Z,77.91
2023-05-15T04:02:21.403Z,77.43
2023-05-15T04:04:49.216Z,77.67
2023-05-15T04:07:16.903Z,77.89
2023-05-15T04:09:44.592Z,78.15
2023-05-15T04:12:12.350Z,78.63
2023-05-15T04:14:41.415Z,78.83
2023-05-15T04:17:09.108Z,78.97
2023-05-15T04:19:36.714Z,79.02
2023-05-15T04:22:04.582Z,78.82
2023-05-15T04:24:32.239Z,78.81
2023-05-15T04:26:59.976Z,78.99
2023-05-15T04:29:27.696Z,79.19
2023-05-15T04:31:56.880Z,79.40
2023-05-15T04:34:24.746Z,78.64
2023-05-15T04:36:52.505Z,79.07
2023-05-15T04:39:20.207Z,79.53
2023-05-15T04:41:47.891Z,79.66
2023-05-15T04:44:15.590Z,79.92
2023-05-15T04:46:43.274Z,80.12
2023-05-15T04:49:12.405Z,79.89
2023-05-15T04:51:41.494Z,80.22
2023-05-15T04:54:09.323Z,80.22
2023-05-15T04:56:37.268Z,80.05
2023-05-15T04:59:05.077Z,80.68
2023-05-15T05:01:32.810Z,80.87
2023-05-15T05:04:00.662Z,80.70
2023-05-15T05:06:30.513Z,80.91
2023-05-15T05:08:58.379Z,80.82
2023-05-15T05:11:26.022Z,81.10
2023-05-15T05:13:53.754Z,80.79
2023-05-15T05:16:21.503Z,81.10
2023-05-15T05:18:49.262Z,81.66
2023-05-15T05:21:17.018Z,80.94
2023-05-15T05:23:47.315Z,80.87
2023-05-15T05:26:15.326Z,80.28
2023-05-15T05:28:43.058Z,80.51
2023-05-15T05:31:11.005Z,80.49
2023-05-15T05:33:38.696Z,80.60
2023-05-15T05:36:06.924Z,81.10
2023-05-15T05:38:34.844Z,80.50
2023-05-15T05:41:04.669Z,80.28
2023-05-15T05:43:32.968Z,80.27
2023-05-15T05:46:00.691Z,79.81
2023-05-15T05:48:28.400Z,80.00
2023-05-15T05:50:56.226Z,79.80
2023-05-15T05:53:23.956Z,79.79
2023-05-15T05:55:51.714Z,80.47
2023-05-15T05:58:25.625Z,80.64
2023-05-15T06:00:54.275Z,80.99
2023-05-15T06:03:22.725Z,81.18
2023-05-15T06:05:50.998Z,80.72
2023-05-15T06:08:19.606Z,81.12
2023-05-15T06:10:47.564Z,81.33
2023-05-15T06:13:15.715Z,81.48
2023-05-15T06:15:45.714Z,81.25
2023-05-15T06:18:13.468Z,81.55
2023-05-15T06:20:42.708Z,81.99
2023-05-15T06:23:10.531Z,81.65
2023-05-15T06:25:38.334Z,81.48
2023-05-15T06:28:06.327Z,81.89
2023-05-15T06:30:34.001Z,81.81
2023-05-15T06:33:03.194Z,81.00
2023-05-15T06:35:30.955Z,80.63
2023-05-15T06:37:58.858Z,80.29
2023-05-15T06:40:26.963Z,80.09
2023-05-15T06:42:54.798Z,79.88
2023-05-15T06:45:22.646Z,79.95
2023-05-15T06:47:50.695Z,79.74
2023-05-15T06:50:19.880Z,79.34
2023-05-15T06:52:47.567Z,79.25
2023-05-15T06:55:15.290Z,78.69
2023-05-15T06:57:42.970Z,78.70
2023-05-15T07:00:12.194Z,78.11
2023-05-15T07:02:39.959Z,77.88
2023-05-15T07:05:08.851Z,77.68
2023-05-15T07:07:38.012Z,77.19
2023-05-15T07:10:06.825Z,76.87
2023-05-15T07:12:34.447Z,76.72
2023-05-15T07:15:02.138Z,77.24
2023-05-15T07:17:29.919Z,76.94
2023-05-15T07:19:57.640Z,76.44
2023-05-15T07:22:25.340Z,75.53
2023-05-15T07:24:54.534Z,76.10
2023-05-15T07:27:22.283Z,75.46
2023-05-15T07:29:50.001Z,75.79
2023-05-15T07:32:17.826Z,75.47
2023-05-15T07:34:45.614Z,74.51
2023-05-15T07:37:14.425Z,75.06
2023-05-15T07:39:43.176Z,73.23
2023-05-15T07:42:12.247Z,73.57
2023-05-15T07:44:40.669Z,74.04
2023-05-15T07:47:09.008Z,72.82
2023-05-15T07:49:36.696Z,72.26
2023-05-15T07:52:04.427Z,71.12
2023-05-15T07:54:32.287Z,70.30
2023-05-15T07:56:59.915Z,69.79
2023-05-15T07:59:31.018Z,69.11
2023-05-15T08:01:58.890Z,69.71
2023-05-15T08:04:26.705Z,69.89
2023-05-15T08:06:54.423Z,69.60
2023-05-15T08:09:22.161Z,68.90
2023-05-15T08:11:49.873Z,68.87
2023-05-15T08:14:17.622Z,69.50
2023-05-15T08:16:46.734Z,70.21
2023-05-15T08:19:14.588Z,69.24
2023-05-15T08:21:42.264Z,68.67
2023-05-15T08:24:10.357Z,68.34
2023-05-15T08:26:38.050Z,67.54
2023-05-15T08:29:06.037Z,66.53
2023-05-15T08:31:33.706Z,65.76
2023-05-15T08:34:02.782Z,65.95
2023-05-15T08:36:30.624Z,65.85
2023-05-15T08:38:58.430Z,65.39
2023-05-15T08:41:40.207Z,65.14
2023-05-15T08:44:10.460Z,64.06
2023-05-15T08:46:38.441Z,64.24
2023-05-15T08:49:13.857Z,62.79
2023-05-15T08:51:41.874Z,63.66
2023-05-15T08:54:10.098Z,64.04
2023-05-15T08:56:38.020Z,63.68
2023-05-15T08:59:05.708Z,63.35
2023-05-15T09:01:33.945Z,61.60
2023-05-15T09:04:01.705Z,61.58
2023-05-15T09:06:31.700Z,62.54
2023-05-15T09:09:00.782Z,61.37
2023-05-15T09:11:28.507Z,62.20
2023-05-15T09:13:59.247Z,61.35
2023-05-15T09:16:27.037Z,59.55
2023-05-15T09:18:55.537Z,59.53
2023-05-15T09:21:24.107Z,59.27
2023-05-15T09:23:53.426Z,58.85
2023-05-15T09:26:21.548Z,59.15
2023-05-15T09:28:49.438Z,58.29
2023-05-15T09:31:20.286Z,58.34
2023-05-15T09:33:48.022Z,57.95
2023-05-15T09:36:22.630Z,58.49
2023-05-15T09:38:50.467Z,58.41
2023-05-15T09:41:25.749Z,57.65
2023-05-15T09:43:54.375Z,56.93
2023-05-15T09:46:22.256Z,57.78
2023-05-15T09:48:50.043Z,59.50
2023-05-15T09:51:18.933Z,59.29
2023-05-15T09:53:50.337Z,59.21
2023-05-15T09:56:19.688Z,60.04
2023-05-15T09:58:54.692Z,59.69
2023-05-15T10:01:22.965Z,59.71
2023-05-15T10:04:00.715Z,60.52
2023-05-15T10:06:28.471Z,60.64
2023-05-15T10:08:57.646Z,59.32
2023-05-15T10:11:27.185Z,58.97
2023-05-15T10:13:55.108Z,59.44
2023-05-15T10:16:23.423Z,58.46
2023-05-15T10:18:52.741Z,58.39
2023-05-15T10:21:21.538Z,58.36
2023-05-15T10:23:49.860Z,57.49
2023-05-15T10:26:22.649Z,55.92
2023-05-15T10:28:52.384Z,54.79
2023-05-15T10:31:21.289Z,55.48
2023-05-15T10:35:08.377Z,57.33
2023-05-15T10:37:36.574Z,57.11
2023-05-15T10:40:05.601Z,54.37
2023-05-15T10:42:34.229Z,54.77
2023-05-15T10:45:03.193Z,52.88
2023-05-15T10:47:31.357Z,50.95
2023-05-15T10:49:59.254Z,52.58
2023-05-15T10:52:28.629Z,53.00
2023-05-15T10:54:56.943Z,53.55
2023-05-15T10:57:24.715Z,52.80
2023-05-15T10:59:52.460Z,51.96
2023-05-15T11:02:21.459Z,53.24
2023-05-15T11:04:49.464Z,53.10
2023-05-15T11:07:18.272Z,53.24
2023-05-15T11:09:47.345Z,52.81
2023-05-15T11:12:15.095Z,53.56
2023-05-15T11:15:51.130Z,52.54
2023-05-15T11:18:19.058Z,54.21
2023-05-15T11:21:08.663Z,54.66
2023-05-15T11:23:41.252Z,56.47
2023-05-15T11:26:09.069Z,53.89
2023-05-15T11:28:44.879Z,54.71
2023-05-15T11:31:14.087Z,53.01
2023-05-15T11:33:42.073Z,53.83
2023-05-15T11:36:10.158Z,53.51
2023-05-15T11:38:40.050Z,54.23
2023-05-15T11:41:18.926Z,55.28
2023-05-15T11:43:47.272Z,56.27
2023-05-15T11:46:16.471Z,57.03
2023-05-15T11:48:47.820Z,55.21
2023-05-15T11:51:19.295Z,54.96
2023-05-15T11:53:47.014Z,54.87
2023-05-15T11:56:19.452Z,54.07
2023-05-15T11:58:49.718Z,54.10
2023-05-15T12:01:19.004Z,55.14
2023-05-15T12:03:48.996Z,56.60
2023-05-15T12:06:17.221Z,56.54
2023-05-15T12:08:45.369Z,54.51
2023-05-15T12:11:13.670Z,55.59
2023-05-15T12:13:41.432Z,55.38
2023-05-15T12:16:09.225Z,55.92
2023-05-15T12:18:38.463Z,55.27
2023-05-15T12:21:06.243Z,55.23
2023-05-15T12:23:34.111Z,55.88
2023-05-15T12:26:03.301Z,54.49
2023-05-15T12:28:32.581Z,55.14
2023-05-15T12:31:00.944Z,53.81
2023-05-15T12:33:28.711Z,52.99
2023-05-15T12:36:01.065Z,51.49
2023-05-15T12:38:29.476Z,50.68
2023-05-15T12:40:57.609Z,48.70
2023-05-15T12:43:26.170Z,45.31
2023-05-15T12:45:54.427Z,42.35
2023-05-15T12:48:22.625Z,44.58
2023-05-15T12:50:51.663Z,43.43
2023-05-15T12:53:23.013Z,43.74
2023-05-15T12:55:52.124Z,45.61
2023-05-15T12:58:20.046Z,45.19
2023-05-15T13:00:49.125Z,45.01
2023-05-15T13:03:16.853Z,47.00
2023-05-15T13:05:45.927Z,48.53
2023-05-15T13:08:16.701Z,48.44
2023-05-15T13:10:47.189Z,46.84
2023-05-15T13:13:15.570Z,47.51
2023-05-15T13:15:44.746Z,48.68
2023-05-15T13:18:14.057Z,48.54
2023-05-15T13:20:42.797Z,48.31
2023-05-15T13:23:11.766Z,47.87
2023-05-15T13:25:39.523Z,47.36
2023-05-15T13:28:10.576Z,46.02
2023-05-15T13:30:41.355Z,45.80
2023-05-15T13:33:09.601Z,46.41
2023-05-15T13:35:37.405Z,45.71
2023-05-15T13:38:05.447Z,45.38
2023-05-15T13:40:35.472Z,46.79
2023-05-15T13:43:03.209Z,47.41
2023-05-15T13:45:32.423Z,47.49
2023-05-15T13:48:00.166Z,47.83
2023-05-15T13:50:28.208Z,47.42
2023-05-15T13:52:56.107Z,47.75
2023-05-15T13:55:25.673Z,47.52
2023-05-15T13:57:53.454Z,48.36
2023-05-15T14:00:21.863Z,48.92
2023-05-15T14:02:50.945Z,48.74
2023-05-15T14:05:18.871Z,49.54
2023-05-15T14:07:46.760Z,50.02
2023-05-15T14:10:14.513Z,50.01
2023-05-15T14:14:13.225Z,48.97
2023-05-15T14:16:40.947Z,49.81
2023-05-15T14:19:08.742Z,48.82
2023-05-15T14:21:36.492Z,47.35
2023-05-15T14:24:04.828Z,46.37
2023-05-15T14:26:32.539Z,47.23
2023-05-15T14:29:00.285Z,47.04
2023-05-15T14:31:29.431Z,46.47
2023-05-15T14:33:57.127Z,46.42
2023-05-15T14:36:24.846Z,48.14
2023-05-15T14:38:52.590Z,49.38
2023-05-15T14:41:21.708Z,51.73
2023-05-15T14:43:49.455Z,52.39
2023-05-15T14:47:33.866Z,53.43
2023-05-15T14:50:01.651Z,52.55
2023-05-15T14:52:29.328Z,53.28
2023-05-15T14:55:08.587Z,53.03
2023-05-15T14:57:37.594Z,53.71
2023-05-15T15:00:06.558Z,53.10
2023-05-15T15:02:36.032Z,53.50
2023-05-15T15:05:04.552Z,54.10
2023-05-15T15:07:32.326Z,54.58
2023-05-15T15:10:00.027Z,55.44
2023-05-15T15:12:27.918Z,55.99
2023-05-15T15:14:55.653Z,56.93
2023-05-15T15:19:19.652Z,58.57
2023-05-15T15:21:47.952Z,59.19
2023-05-15T15:24:15.772Z,59.78
2023-05-15T15:26:43.517Z,60.12
2023-05-15T15:29:11.185Z,60.09
2023-05-15T15:31:38.886Z,60.50
2023-05-15T15:34:08.534Z,59.98
2023-05-15T15:36:39.265Z,59.29
2023-05-15T15:39:06.915Z,57.92
2023-05-15T15:41:34.642Z,57.61
2023-05-15T15:44:02.288Z,57.89
2023-05-15T15:46:29.951Z,58.80
2023-05-15T15:48:57.634Z,59.72
2023-05-15T15:51:25.420Z,59.61
2023-05-15T15:53:54.475Z,60.39
2023-05-15T15:56:22.406Z,60.95
2023-05-15T15:58:50.068Z,60.90
2023-05-15T16:01:17.857Z,60.58
2023-05-15T16:03:45.782Z,60.85
2023-05-15T16:06:13.464Z,60.93
2023-05-15T16:08:41.181Z,61.62
2023-05-15T16:11:10.466Z,61.53
2023-05-15T16:13:40.269Z,62.03
2023-05-15T16:16:08.813Z,62.35
2023-05-15T16:20:17.257Z,63.22
2023-05-15T16:22:44.954Z,63.65
2023-05-15T16:25:12.676Z,62.96
2023-05-15T16:27:57.073Z,63.80
2023-05-15T16:30:33.408Z,63.87
2023-05-15T16:33:12.444Z,64.46
2023-05-15T16:35:40.199Z,64.59
2023-05-15T16:38:07.841Z,64.24
2023-05-15T16:40:35.543Z,64.70
2023-05-15T16:43:04.618Z,64.75
2023-05-15T16:45:32.279Z,64.45
2023-05-15T16:47:59.989Z,64.98
2023-05-15T16:50:27.823Z,65.62
2023-05-15T16:52:55.604Z,65.35
2023-05-15T16:55:23.391Z,65.29
2023-05-15T16:57:51.239Z,64.10
2023-05-15T17:00:20.999Z,63.95
2023-05-15T17:02:49.362Z,62.78
2023-05-15T17:05:17.306Z,63.34
2023-05-15T17:07:45.519Z,63.07
2023-05-15T17:10:13.878Z,62.90
2023-05-15T17:12:41.740Z,62.68
2023-05-15T17:15:10.386Z,61.87
2023-05-15T17:17:39.602Z,62.61
2023-05-15T17:20:25.055Z,62.79
2023-05-15T17:22:52.754Z,62.98
2023-05-15T17:25:20.760Z,62.96
2023-05-15T17:27:48.448Z,63.38
2023-05-15T17:30:16.659Z,63.66
2023-05-15T17:32:44.418Z,64.31
2023-05-15T17:35:12.165Z,63.99
2023-05-15T17:37:41.371Z,64.40
2023-05-15T17:40:09.815Z,64.35
2023-05-15T17:42:37.938Z,64.65
2023-05-15T17:45:06.412Z,65.80
2023-05-15T17:47:48.997Z,64.85
2023-05-15T17:50:16.936Z,64.88
2023-05-15T17:52:44.695Z,63.91
2023-05-15T17:55:12.395Z,64.12
2023-05-15T17:57:40.096Z,64.15
2023-05-15T18:00:09.344Z,64.54
2023-05-15T18:02:37.145Z,64.88
2023-05-15T18:05:07.009Z,65.29
2023-05-15T18:07:34.711Z,65.24
2023-05-15T18:10:02.362Z,65.50
2023-05-15T18:12:30.083Z,65.30
2023-05-15T18:14:57.849Z,65.85
2023-05-15T18:17:25.638Z,65.93
2023-05-15T18:19:53.382Z,65.92
2023-05-15T18:22:22.367Z,66.15
2023-05-15T18:24:50.003Z,67.02
2023-05-15T18:27:17.904Z,67.21
2023-05-15T18:29:45.755Z,67.45
2023-05-15T18:32:13.452Z,67.71
2023-05-15T18:34:41.224Z,67.55
2023-05-15T18:37:08.937Z,67.46
2023-05-15T18:39:39.565Z,67.66
2023-05-15T18:42:08.005Z,67.68
2023-05-15T18:44:35.915Z,68.06
2023-05-15T18:47:04.040Z,68.24
2023-05-15T18:49:31.847Z,68.38
2023-05-15T18:51:59.486Z,68.03
2023-05-15T18:54:27.429Z,68.54
2023-05-15T18:56:56.639Z,68.31
2023-05-15T18:59:24.596Z,68.53
2023-05-15T19:01:53.761Z,69.04
2023-05-15T19:04:21.562Z,68.67
2023-05-15T19:06:50.373Z,68.32
2023-05-15T19:09:18.946Z,67.93
2023-05-15T19:11:47.387Z,67.71
2023-05-15T19:14:18.040Z,67.64
2023-05-15T19:16:46.150Z,67.91
2023-05-15T19:19:14.466Z,68.08
2023-05-15T19:21:42.186Z,68.15
2023-05-15T19:24:10.045Z,68.01
2023-05-15T19:26:37.749Z,68.32
2023-05-15T19:29:05.563Z,68.15
2023-05-15T19:31:34.618Z,68.37
2023-05-15T19:34:02.292Z,68.81
2023-05-15T19:36:29.989Z,69.24
2023-05-15T19:38:57.833Z,69.03
2023-05-15T19:41:25.665Z,68.86
2023-05-15T19:43:53.342Z,68.49
2023-05-15T19:46:21.178Z,68.48
2023-05-15T19:48:50.413Z,68.15
2023-05-15T19:51:18.128Z,68.35
2023-05-15T19:53:45.951Z,68.38
2023-05-15T19:56:14.046Z,68.18
2023-05-15T19:58:41.648Z,68.38
2023-05-15T20:01:09.416Z,68.33
2023-05-15T20:03:37.530Z,67.87
2023-05-15T20:06:06.928Z,67.52
2023-05-15T20:08:34.815Z,67.50
2023-05-15T20:11:02.799Z,67.97
2023-05-15T20:13:30.861Z,67.45
2023-05-15T20:16:00.617Z,67.85
2023-05-15T20:18:31.450Z,67.66
2023-05-15T20:21:00.757Z,67.97
2023-05-15T20:23:29.966Z,67.70
2023-05-15T20:25:57.750Z,67.82
2023-05-15T20:28:27.175Z,68.05
2023-05-15T20:30:57.306Z,67.99
2023-05-15T20:33:25.550Z,68.38
2023-05-15T20:35:53.961Z,69.07
2023-05-15T20:38:24.282Z,69.17
2023-05-15T20:40:53.701Z,69.63
2023-05-15T20:43:21.521Z,70.06
2023-05-15T20:45:49.311Z,70.72
2023-05-15T20:48:17.365Z,70.76
2023-05-15T20:50:45.072Z,70.69
2023-05-15T20:53:13.265Z,70.48
2023-05-15T20:55:41.006Z,70.75
2023-05-15T20:58:10.118Z,71.08
2023-05-15T21:00:37.943Z,71.24
2023-05-15T21:03:06.204Z,71.40
2023-05-15T21:05:34.087Z,71.11
2023-05-15T21:08:02.223Z,71.15
2023-05-15T21:10:30.175Z,70.94
2023-05-15T21:12:59.202Z,70.97
2023-05-15T21:15:28.559Z,71.16
2023-05-15T21:17:56.294Z,70.92
2023-05-15T21:20:24.312Z,70.93
2023-05-15T21:22:52.180Z,71.31
2023-05-15T21:25:20.041Z,71.75
2023-05-15T21:27:47.718Z,71.54
2023-05-15T21:30:15.940Z,71.84
2023-05-15T21:32:45.261Z,71.66
2023-05-15T21:35:12.947Z,71.70
2023-05-15T21:37:40.682Z,71.85
2023-05-15T21:40:09.597Z,72.05
2023-05-15T21:42:37.278Z,71.61
2023-05-15T21:45:06.849Z,71.63
2023-05-15T21:47:34.855Z,72.01
2023-05-15T21:50:03.952Z,72.03
2023-05-15T21:52:31.697Z,72.11
2023-05-15T21:54:59.379Z,72.31
2023-05-15T21:57:27.004Z,72.79
2023-05-15T21:59:54.621Z,72.85
2023-05-15T22:02:22.577Z,72.80
2023-05-15T22:04:50.420Z,72.66
2023-05-15T22:07:19.585Z,72.39
2023-05-15T22:09:47.217Z,72.71
2023-05-15T22:12:14.885Z,72.39
2023-05-15T22:14:54.378Z,72.80
2023-05-15T22:17:27.271Z,72.70
2023-05-15T22:20:07.538Z,73.08
2023-05-15T22:22:37.504Z,72.87
2023-05-15T22:25:06.368Z,73.10
2023-05-15T22:27:34.122Z,73.26
2023-05-15T22:30:01.853Z,73.00
2023-05-15T22:32:29.563Z,72.57
2023-05-15T22:34:57.268Z,72.20
2023-05-15T22:37:25.039Z,72.07
2023-05-15T22:39:54.055Z,72.30
2023-05-15T22:42:21.758Z,72.26
2023-05-15T22:44:49.496Z,71.79
2023-05-15T22:47:17.271Z,71.55
2023-05-15T22:49:45.007Z,71.27
2023-05-15T22:52:13.807Z,71.41
2023-05-15T22:54:42.093Z,71.00
2023-05-15T22:57:11.200Z,70.19
2023-05-15T22:59:39.488Z,70.01
2023-05-15T23:02:07.396Z,69.52
2023-05-15T23:04:35.237Z,69.04
2023-05-15T23:07:02.931Z,68.40
2023-05-15T23:09:30.640Z,67.78
2023-05-15T23:11:58.299Z,67.74
2023-05-15T23:14:27.446Z,67.73
2023-05-15T23:16:55.132Z,67.45
2023-05-15T23:19:22.953Z,67.50
2023-05-15T23:21:50.814Z,67.06
2023-05-15T23:24:18.498Z,66.76
2023-05-15T23:26:46.994Z,66.73
2023-05-15T23:29:14.776Z,66.59
2023-05-15T23:31:43.912Z,66.21
2023-05-15T23:34:11.646Z,66.36
2023-05-15T23:36:39.346Z,66.47
2023-05-15T23:39:08.085Z,66.28
2023-05-15T23:41:36.501Z,66.65
2023-05-15T23:44:04.462Z,66.41
2023-05-15T23:46:32.234Z,66.49
2023-05-15T23:49:01.339Z,66.74
2023-05-15T23:51:28.957Z,67.16
2023-05-15T23:53:56.607Z,66.93
2023-05-15T23:56:24.364Z,66.83
2023-05-15T23:58:52.127Z,66.89
